Time;durP1;ratioP1;P1;durP2;ratioP2;P2;SDS_P1;SDS_P2;PMS_P1;PMS_P2;Temp;Humidity;BMP_temperature;BMP_pressure;BME280_temperature;BME280_humidity;BME280_pressure;Samples;Min_cycle;Max_cycle;Signal;HPM_P1;HPM_P2
2023/08/07 00:02:08;;;;;;;5.72;5.10;;;25.70;77.90;;;;;;5064574;28;20036;-71
2023/08/07 00:04:34;;;;;;;6.10;5.15;;;25.70;77.70;;;;;;5066805;28;20041;-71
2023/08/07 00:07:00;;;;;;;5.32;4.82;;;25.70;77.70;;;;;;5063698;28;20043;-71
2023/08/07 00:09:26;;;;;;;5.85;5.13;;;25.60;77.80;;;;;;5067556;28;20102;-71
2023/08/07 00:11:52;;;;;;;6.55;4.75;;;25.60;78.00;;;;;;5067054;28;20445;-71
2023/08/07 00:14:17;;;;;;;5.57;5.00;;;25.40;78.30;;;;;;5063435;28;20134;-71
2023/08/07 00:16:44;;;;;;;5.28;4.75;;;25.50;78.20;;;;;;5063170;28;20619;-71
2023/08/07 00:19:10;;;;;;;6.82;5.00;;;25.50;77.80;;;;;;5063733;28;20123;-72
2023/08/07 00:21:37;;;;;;;6.63;4.85;;;25.50;78.10;;;;;;5062742;28;20036;-71
2023/08/07 00:24:03;;;;;;;5.13;4.72;;;25.40;78.10;;;;;;5065281;28;20044;-71
2023/08/07 00:26:31;;;;;;;7.25;4.80;;;25.40;78.10;;;;;;5066312;28;20044;-71
2023/08/07 00:28:58;;;;;;;10.05;5.05;;;25.40;78.20;;;;;;5083541;28;20557;-71
2023/08/07 00:31:24;;;;;;;5.85;4.75;;;25.40;78.30;;;;;;5063138;28;20044;-71
2023/08/07 00:33:53;;;;;;;5.45;4.90;;;25.40;78.10;;;;;;5064407;28;20047;-70
2023/08/07 00:36:20;;;;;;;4.93;4.53;;;25.40;78.10;;;;;;5068402;28;20037;-71
2023/08/07 00:38:46;;;;;;;5.65;4.68;;;25.40;78.10;;;;;;5061555;28;20083;-70
2023/08/07 00:41:11;;;;;;;5.72;5.00;;;25.40;78.40;;;;;;5065590;28;20033;-71
2023/08/07 00:43:37;;;;;;;6.22;5.00;;;25.20;78.60;;;;;;5064143;28;20057;-71
2023/08/07 00:46:05;;;;;;;5.00;4.60;;;25.30;78.70;;;;;;5066666;28;20456;-71
2023/08/07 00:48:32;;;;;;;7.25;4.82;;;25.40;78.40;;;;;;5067185;28;20032;-71
2023/08/07 00:50:58;;;;;;;7.55;5.20;;;25.30;78.60;;;;;;5065018;28;20024;-71
2023/08/07 00:53:24;;;;;;;6.68;5.20;;;25.20;78.90;;;;;;5065880;28;20057;-71
2023/08/07 00:55:50;;;;;;;7.57;5.28;;;25.20;79.00;;;;;;5078522;28;20043;-71
2023/08/07 00:58:17;;;;;;;6.75;5.30;;;25.20;78.80;;;;;;5063615;28;20043;-72
2023/08/07 01:00:43;;;;;;;5.80;4.78;;;25.20;79.10;;;;;;5064279;28;20033;-72
2023/08/07 01:03:12;;;;;;;5.20;4.70;;;25.20;78.90;;;;;;5061881;28;20047;-71
2023/08/07 01:05:37;;;;;;;7.63;5.32;;;25.20;79.10;;;;;;5068034;28;20092;-72
2023/08/07 01:08:04;;;;;;;8.40;5.50;;;25.00;79.50;;;;;;5067619;28;20035;-73
2023/08/07 01:10:58;;;;;;;10.05;5.18;;;25.00;79.50;;;;;;5067752;28;20037;-72
2023/08/07 01:13:41;;;;;;;6.28;5.22;;;25.10;79.50;;;;;;5055392;28;20488;-72
2023/08/07 01:16:27;;;;;;;7.78;5.55;;;25.00;79.40;;;;;;5070540;28;20059;-74
2023/08/07 01:18:54;;;;;;;7.07;4.82;;;25.00;79.70;;;;;;5064935;28;20034;-74
2023/08/07 01:21:21;;;;;;;6.65;5.05;;;25.00;79.80;;;;;;5068800;28;20032;-74
2023/08/07 01:23:48;;;;;;;5.40;4.90;;;24.80;80.10;;;;;;5066370;28;20043;-74
2023/08/07 01:26:19;;;;;;;5.13;4.72;;;24.80;80.50;;;;;;5066433;28;20067;-73
2023/08/07 01:29:18;;;;;;;9.90;5.13;;;24.80;80.50;;;;;;5066547;28;20083;-74
2023/08/07 01:31:46;;;;;;;4.82;4.30;;;24.80;80.40;;;;;;5063080;28;20131;-73
2023/08/07 01:34:14;;;;;;;5.82;5.00;;;24.80;80.50;;;;;;5060550;28;20050;-73
2023/08/07 01:36:40;;;;;;;8.43;5.45;;;24.70;80.80;;;;;;5066661;28;20036;-73
2023/08/07 01:39:08;;;;;;;6.10;4.85;;;24.70;80.80;;;;;;5050797;28;20117;-74
2023/08/07 01:41:36;;;;;;;5.88;5.28;;;24.60;81.10;;;;;;5069389;28;20046;-73
2023/08/07 01:44:03;;;;;;;6.18;5.32;;;24.60;81.00;;;;;;5065367;28;20498;-73
2023/08/07 01:46:29;;;;;;;5.57;5.05;;;24.60;81.60;;;;;;5064514;28;20174;-74
2023/08/07 01:48:55;;;;;;;6.57;5.13;;;24.60;81.10;;;;;;5065655;28;20115;-73
2023/08/07 01:51:21;;;;;;;6.25;5.22;;;24.60;81.20;;;;;;5065329;28;20380;-73
2023/08/07 01:53:49;;;;;;;6.75;5.30;;;24.60;81.30;;;;;;5061553;28;20037;-74
2023/08/07 01:56:15;;;;;;;5.60;5.10;;;24.40;81.60;;;;;;5065947;28;20035;-74
2023/08/07 01:58:41;;;;;;;8.55;5.57;;;24.40;82.20;;;;;;5065935;28;20044;-74
2023/08/07 02:01:07;;;;;;;6.00;5.40;;;24.40;82.00;;;;;;5064383;28;20036;-75
2023/08/07 02:03:33;;;;;;;7.88;5.40;;;24.30;82.00;;;;;;5062989;28;20414;-75
2023/08/07 02:05:59;;;;;;;5.65;4.90;;;24.40;81.80;;;;;;5046417;28;20097;-74
2023/08/07 02:08:25;;;;;;;8.88;4.93;;;24.40;81.60;;;;;;5068400;28;20130;-74
2023/08/07 02:10:51;;;;;;;5.95;5.20;;;24.40;81.70;;;;;;5059999;28;20037;-73
2023/08/07 02:13:17;;;;;;;6.13;5.35;;;24.40;81.70;;;;;;5061823;28;20048;-74
2023/08/07 02:15:43;;;;;;;6.85;4.90;;;24.40;81.70;;;;;;5061330;28;20511;-74
2023/08/07 02:18:08;;;;;;;7.45;5.40;;;24.40;81.60;;;;;;5067401;28;20389;-74
2023/08/07 02:20:34;;;;;;;6.50;5.18;;;24.40;81.40;;;;;;5064048;28;20043;-75
2023/08/07 02:23:00;;;;;;;6.53;5.45;;;24.40;81.50;;;;;;5065085;28;20484;-74
2023/08/07 02:25:27;;;;;;;7.72;5.15;;;24.50;81.20;;;;;;5062968;28;20078;-75
2023/08/07 02:27:56;;;;;;;5.85;5.28;;;24.50;81.20;;;;;;5062563;28;20029;-74
2023/08/07 02:30:21;;;;;;;5.30;4.80;;;24.50;81.20;;;;;;5064883;28;20021;-73
2023/08/07 02:32:49;;;;;;;6.80;5.40;;;24.50;81.30;;;;;;5064538;28;20040;-74
2023/08/07 02:35:15;;;;;;;6.07;5.10;;;24.40;81.30;;;;;;5066305;28;20055;-73
2023/08/07 02:37:41;;;;;;;5.38;4.88;;;24.40;81.80;;;;;;5059656;28;20057;-75
2023/08/07 02:40:07;;;;;;;5.72;5.05;;;24.30;81.80;;;;;;5045572;28;20413;-75
2023/08/07 02:42:34;;;;;;;8.07;5.28;;;24.40;81.70;;;;;;5067949;28;20517;-75
2023/08/07 02:45:00;;;;;;;5.88;5.30;;;24.50;81.60;;;;;;5070929;28;20121;-74
2023/08/07 02:47:26;;;;;;;7.20;5.13;;;24.60;81.50;;;;;;5064735;28;20040;-73
2023/08/07 02:49:52;;;;;;;7.28;5.28;;;24.60;81.10;;;;;;5067262;28;20130;-74
2023/08/07 02:52:18;;;;;;;5.60;5.10;;;24.70;80.80;;;;;;5066168;28;20058;-73
2023/08/07 02:54:43;;;;;;;9.45;5.50;;;24.60;80.80;;;;;;5067477;28;20045;-73
2023/08/07 02:57:09;;;;;;;5.40;4.90;;;24.60;80.80;;;;;;5067483;28;20523;-74
2023/08/07 02:59:35;;;;;;;5.53;5.03;;;24.40;81.10;;;;;;5067138;28;20085;-74
2023/08/07 03:02:01;;;;;;;5.45;5.03;;;24.40;81.30;;;;;;5064127;28;20500;-74
2023/08/07 03:04:27;;;;;;;7.10;4.95;;;24.40;81.50;;;;;;5069073;28;20040;-74
2023/08/07 03:06:54;;;;;;;7.10;5.43;;;24.30;81.40;;;;;;5065598;28;20028;-74
2023/08/07 03:09:20;;;;;;;7.25;5.43;;;24.30;81.80;;;;;;5066168;28;20533;-73
2023/08/07 03:11:46;;;;;;;6.00;5.43;;;24.30;81.70;;;;;;5066445;28;20034;-74
2023/08/07 03:14:12;;;;;;;9.35;5.55;;;24.20;82.00;;;;;;5063716;28;20041;-74
2023/08/07 03:16:38;;;;;;;7.90;5.30;;;24.30;81.70;;;;;;5062548;28;20029;-74
2023/08/07 03:19:04;;;;;;;8.50;5.00;;;24.30;81.70;;;;;;5064554;28;20047;-75
2023/08/07 03:21:31;;;;;;;6.47;5.10;;;24.30;81.70;;;;;;5070534;28;20033;-74
2023/08/07 03:23:57;;;;;;;7.45;5.00;;;24.20;81.90;;;;;;5065809;28;20085;-74
2023/08/07 03:26:23;;;;;;;6.78;5.57;;;24.20;82.30;;;;;;5067179;28;20131;-74
2023/08/07 03:28:49;;;;;;;6.40;5.28;;;24.20;82.40;;;;;;5068565;28;20060;-74
2023/08/07 03:31:16;;;;;;;7.00;5.00;;;24.20;82.30;;;;;;5064300;28;20449;-74
2023/08/07 03:33:42;;;;;;;5.88;5.28;;;24.20;82.20;;;;;;5053404;28;20391;-74
2023/08/07 03:36:09;;;;;;;6.38;5.18;;;24.20;81.90;;;;;;5068112;28;20118;-73
2023/08/07 03:38:35;;;;;;;5.80;5.18;;;24.30;81.80;;;;;;5066943;28;20028;-74
2023/08/07 03:41:01;;;;;;;5.50;4.95;;;24.20;82.30;;;;;;5065145;28;20035;-74
2023/08/07 03:43:28;;;;;;;5.38;4.88;;;24.20;82.30;;;;;;5067939;28;20090;-75
2023/08/07 03:45:58;;;;;;;5.78;5.28;;;24.20;81.90;;;;;;5068339;28;20494;-76
2023/08/07 03:48:24;;;;;;;8.82;5.10;;;24.20;82.00;;;;;;5067449;28;20120;-75
2023/08/07 03:50:51;;;;;;;5.40;4.90;;;24.30;82.00;;;;;;5065132;28;20033;-75
2023/08/07 03:53:18;;;;;;;5.57;5.07;;;24.30;81.90;;;;;;5065587;28;20033;-75
2023/08/07 03:55:51;;;;;;;9.50;5.40;;;24.20;81.90;;;;;;5065966;28;20029;-72
2023/08/07 03:58:19;;;;;;;5.78;5.13;;;24.20;82.30;;;;;;5068870;28;20041;-75
2023/08/07 04:00:46;;;;;;;5.43;4.93;;;24.20;82.50;;;;;;5046382;28;20084;-74
2023/08/07 04:03:12;;;;;;;6.32;5.07;;;24.30;82.00;;;;;;5067556;28;20087;-74
2023/08/07 04:05:38;;;;;;;5.40;4.75;;;24.30;81.70;;;;;;5068866;28;20032;-74
2023/08/07 04:08:06;;;;;;;5.75;4.95;;;24.40;81.50;;;;;;5063367;28;20499;-72
2023/08/07 04:10:32;;;;;;;4.90;4.15;;;24.50;81.40;;;;;;5066956;28;20036;-72
2023/08/07 04:12:58;;;;;;;5.93;4.70;;;24.70;80.60;;;;;;5069576;28;20036;-73
2023/08/07 04:15:24;;;;;;;4.95;4.40;;;24.80;80.20;;;;;;5063458;28;20032;-74
2023/08/07 04:17:50;;;;;;;6.93;4.43;;;25.00;79.70;;;;;;5065386;28;20048;-74
2023/08/07 04:20:16;;;;;;;7.13;4.22;;;25.20;79.30;;;;;;5066158;28;20032;-74
2023/08/07 04:22:42;;;;;;;6.10;4.10;;;25.40;78.30;;;;;;5065974;28;20029;-74
2023/08/07 04:25:08;;;;;;;6.72;4.25;;;25.40;77.50;;;;;;5064739;28;20029;-74
2023/08/07 04:27:34;;;;;;;7.15;4.20;;;25.60;77.30;;;;;;5066338;28;20063;-74
2023/08/07 04:30:00;;;;;;;4.40;4.00;;;25.80;76.40;;;;;;5067868;28;20149;-73
2023/08/07 04:32:26;;;;;;;6.10;3.95;;;25.90;76.00;;;;;;5067483;28;20543;-74
2023/08/07 04:34:52;;;;;;;4.50;4.05;;;26.00;75.60;;;;;;5062823;28;20066;-74
2023/08/07 04:37:18;;;;;;;4.60;3.80;;;26.10;75.00;;;;;;5068281;28;20048;-74
2023/08/07 04:39:44;;;;;;;4.05;3.65;;;26.30;74.50;;;;;;5066975;28;20033;-74
2023/08/07 04:42:10;;;;;;;3.45;3.15;;;26.50;73.70;;;;;;5070239;28;20039;-74
2023/08/07 04:44:36;;;;;;;4.72;4.10;;;26.50;73.20;;;;;;5067904;28;20032;-74
2023/08/07 04:47:02;;;;;;;4.18;3.75;;;26.60;72.30;;;;;;5063901;28;20052;-73
2023/08/07 04:49:28;;;;;;;4.75;3.38;;;26.70;72.80;;;;;;5065783;28;20065;-74
2023/08/07 04:51:54;;;;;;;3.63;3.33;;;26.80;72.10;;;;;;5062478;28;20080;-73
2023/08/07 04:54:20;;;;;;;4.35;3.95;;;26.90;71.10;;;;;;5061974;28;21558;-74
2023/08/07 04:56:45;;;;;;;5.45;3.60;;;27.00;71.00;;;;;;5067259;28;20119;-74
2023/08/07 04:59:11;;;;;;;9.13;3.72;;;27.00;70.50;;;;;;5066288;28;20542;-74
2023/08/07 05:01:38;;;;;;;6.07;3.28;;;27.00;70.40;;;;;;5067960;28;20090;-74
2023/08/07 05:04:05;;;;;;;5.82;3.38;;;27.10;70.20;;;;;;5064049;28;20496;-74
2023/08/07 05:06:31;;;;;;;4.03;3.17;;;27.20;69.80;;;;;;5062359;28;20029;-74
2023/08/07 05:08:57;;;;;;;8.90;3.20;;;27.40;70.00;;;;;;5069765;28;20025;-74
2023/08/07 05:11:23;;;;;;;5.03;3.38;;;27.30;69.10;;;;;;5063657;28;20086;-74
2023/08/07 05:13:49;;;;;;;3.95;2.80;;;27.50;68.50;;;;;;5063395;28;20120;-74
2023/08/07 05:16:15;;;;;;;11.05;3.47;;;27.60;68.60;;;;;;5064979;28;20507;-75
2023/08/07 05:18:41;;;;;;;3.53;3.20;;;27.80;68.40;;;;;;5066978;28;20028;-75
2023/08/07 05:21:08;;;;;;;3.85;3.38;;;27.90;68.20;;;;;;5066849;28;20622;-75
2023/08/07 05:23:34;;;;;;;6.00;3.25;;;28.10;67.10;;;;;;5065852;28;20044;-75
2023/08/07 05:26:00;;;;;;;5.05;3.25;;;28.20;66.70;;;;;;5062106;28;20040;-74
2023/08/07 05:28:26;;;;;;;4.55;3.15;;;28.20;66.60;;;;;;5069553;28;20517;-75
2023/08/07 05:30:52;;;;;;;3.83;3.20;;;28.40;66.10;;;;;;5062598;28;20041;-75
2023/08/07 05:33:18;;;;;;;3.13;2.90;;;28.50;66.40;;;;;;5062090;28;20024;-75
2023/08/07 05:35:44;;;;;;;4.15;2.80;;;28.60;65.20;;;;;;5060067;28;20044;-75
2023/08/07 05:38:10;;;;;;;6.15;2.80;;;28.80;64.60;;;;;;5065415;28;20127;-75
2023/08/07 05:40:36;;;;;;;3.88;3.22;;;28.80;64.20;;;;;;5061793;28;20052;-76
2023/08/07 05:43:03;;;;;;;6.63;3.13;;;28.80;63.40;;;;;;5064284;28;20037;-74
2023/08/07 05:45:28;;;;;;;3.05;2.80;;;29.00;63.50;;;;;;5063843;28;20448;-75
2023/08/07 05:47:54;;;;;;;5.72;2.95;;;29.10;62.80;;;;;;5065424;28;20124;-76
2023/08/07 05:50:20;;;;;;;4.28;2.90;;;29.10;62.80;;;;;;5063025;28;20071;-76
2023/08/07 05:52:46;;;;;;;3.75;2.92;;;29.20;62.60;;;;;;5062578;28;20043;-76
2023/08/07 05:55:12;;;;;;;5.63;2.90;;;29.40;62.40;;;;;;5063900;28;20405;-76
2023/08/07 05:57:38;;;;;;;3.80;2.70;;;29.50;63.00;;;;;;5062102;28;20038;-76
2023/08/07 06:00:05;;;;;;;2.95;2.70;;;29.50;62.70;;;;;;5064496;28;20040;-76
2023/08/07 06:02:37;;;;;;;4.10;2.58;;;29.60;62.60;;;;;;5065628;28;20123;-75
2023/08/07 06:05:04;;;;;;;6.18;2.75;;;29.60;62.10;;;;;;5064262;28;20131;-75
2023/08/07 06:07:30;;;;;;;3.53;2.65;;;29.70;62.80;;;;;;5062701;28;20036;-75
2023/08/07 06:09:56;;;;;;;4.00;2.40;;;29.80;61.90;;;;;;5064607;28;20085;-75
2023/08/07 06:12:22;;;;;;;4.25;2.58;;;29.80;64.00;;;;;;5060926;28;20307;-75
2023/08/07 06:14:48;;;;;;;5.72;2.30;;;29.90;61.00;;;;;;5065051;28;20075;-76
2023/08/07 06:17:14;;;;;;;2.47;2.28;;;29.80;60.50;;;;;;5062324;28;20039;-76
2023/08/07 06:19:40;;;;;;;2.50;2.30;;;29.90;60.70;;;;;;5064392;28;20037;-76
2023/08/07 06:22:06;;;;;;;4.75;2.40;;;30.00;60.50;;;;;;5079281;28;20514;-76
2023/08/07 06:24:31;;;;;;;3.17;2.40;;;29.90;61.50;;;;;;5062391;28;20135;-76
2023/08/07 06:26:57;;;;;;;6.72;2.30;;;30.00;61.50;;;;;;5063566;28;20042;-76
2023/08/07 06:29:23;;;;;;;3.03;2.58;;;30.10;60.40;;;;;;5061783;28;20035;-76
2023/08/07 06:31:49;;;;;;;6.18;2.50;;;30.00;60.40;;;;;;5062705;28;20086;-76
2023/08/07 06:34:15;;;;;;;4.15;2.50;;;29.90;60.00;;;;;;5060765;28;20036;-75
2023/08/07 06:36:41;;;;;;;4.53;2.25;;;30.10;60.80;;;;;;5059892;28;20040;-75
2023/08/07 06:39:07;;;;;;;3.08;2.08;;;30.10;63.50;;;;;;5063725;28;20028;-75
2023/08/07 06:41:33;;;;;;;3.17;2.00;;;30.00;59.00;;;;;;5064032;28;20059;-75
2023/08/07 06:43:59;;;;;;;3.15;2.20;;;30.00;60.00;;;;;;5060867;28;20078;-74
2023/08/07 06:46:26;;;;;;;3.72;2.17;;;30.10;61.10;;;;;;5064230;28;20044;-73
2023/08/07 06:48:52;;;;;;;3.58;2.15;;;30.30;61.80;;;;;;5061647;28;20091;-78
2023/08/07 06:51:18;;;;;;;2.97;2.17;;;30.20;59.10;;;;;;5064037;28;20032;-77
2023/08/07 06:53:44;;;;;;;3.65;2.33;;;30.20;62.10;;;;;;5065894;28;20588;-78
2023/08/07 06:56:10;;;;;;;2.88;2.13;;;30.10;66.10;;;;;;5068268;28;20135;-79
2023/08/07 06:58:36;;;;;;;3.08;2.20;;;30.00;65.10;;;;;;5067033;28;20660;-80
2023/08/07 07:01:02;;;;;;;2.63;2.38;;;29.90;60.60;;;;;;5071993;28;20052;-78
2023/08/07 07:03:28;;;;;;;2.35;2.15;;;29.80;60.10;;;;;;5071848;28;20596;-83
2023/08/07 07:05:55;;;;;;;6.28;2.15;;;29.70;59.40;;;;;;5069584;28;20031;-87
2023/08/07 07:08:21;;;;;;;4.78;2.28;;;29.50;58.90;;;;;;5068153;28;20037;-83
2023/08/07 07:10:47;;;;;;;4.80;2.20;;;29.70;63.00;;;;;;5069624;28;20090;-84
2023/08/07 07:13:13;;;;;;;2.80;2.10;;;29.80;59.90;;;;;;5069001;28;20043;-84
2023/08/07 07:15:39;;;;;;;5.18;2.00;;;29.70;58.90;;;;;;5071385;28;20122;-82
2023/08/07 07:18:05;;;;;;;5.45;2.10;;;29.60;58.80;;;;;;5070956;28;20033;-86
2023/08/07 07:20:31;;;;;;;2.83;1.90;;;29.60;59.90;;;;;;5068149;28;20120;-84
2023/08/07 07:22:57;;;;;;;4.82;1.85;;;29.70;59.60;;;;;;5070027;28;20136;-84
2023/08/07 07:25:23;;;;;;;3.67;2.00;;;29.70;60.40;;;;;;5073463;28;20068;-80
2023/08/07 07:27:49;;;;;;;4.22;1.75;;;29.80;65.40;;;;;;5071769;28;20128;-79
2023/08/07 07:30:15;;;;;;;3.97;2.00;;;29.80;62.40;;;;;;5075353;28;20029;-82
2023/08/07 07:32:40;;;;;;;2.20;1.98;;;29.70;58.30;;;;;;5071651;28;21006;-81
2023/08/07 07:35:07;;;;;;;5.85;2.10;;;29.80;61.80;;;;;;5068032;28;20037;-81
2023/08/07 07:37:33;;;;;;;2.75;1.70;;;29.90;61.40;;;;;;5065906;28;20032;-82
2023/08/07 07:39:59;;;;;;;4.10;1.90;;;29.80;59.00;;;;;;5053151;28;20518;-81
2023/08/07 07:42:25;;;;;;;3.03;2.47;;;29.70;59.00;;;;;;5069587;28;20071;-80
2023/08/07 07:44:51;;;;;;;2.42;2.15;;;29.70;58.90;;;;;;5074080;28;20036;-79
2023/08/07 07:47:17;;;;;;;3.88;1.80;;;29.70;60.60;;;;;;5075512;28;20097;-77
2023/08/07 07:49:49;;;;;;;4.10;1.80;;;29.70;62.00;;;;;;5074804;28;20035;-77
2023/08/07 07:52:15;;;;;;;5.53;1.92;;;29.70;57.90;;;;;;5074343;28;20040;-76
2023/08/07 07:54:41;;;;;;;4.63;2.20;;;29.60;59.00;;;;;;5072320;28;20525;-75
2023/08/07 07:57:07;;;;;;;4.80;1.90;;;29.50;57.60;;;;;;5081729;28;20032;-75
2023/08/07 07:59:33;;;;;;;4.78;1.90;;;29.40;58.10;;;;;;5070023;28;20032;-75
2023/08/07 08:01:59;;;;;;;4.13;1.98;;;29.40;59.40;;;;;;5068842;28;20025;-74
2023/08/07 08:04:25;;;;;;;3.28;1.60;;;29.40;57.90;;;;;;5063861;28;20039;-74
2023/08/07 08:06:51;;;;;;;6.18;2.10;;;29.60;59.40;;;;;;5068400;28;20043;-73
2023/08/07 08:09:17;;;;;;;6.45;1.80;;;29.50;58.20;;;;;;5064267;28;20033;-74
2023/08/07 08:11:43;;;;;;;5.60;1.85;;;29.50;57.60;;;;;;5069554;28;20052;-73
2023/08/07 08:14:09;;;;;;;3.17;1.80;;;29.50;57.80;;;;;;5065909;28;20033;-73
2023/08/07 08:16:35;;;;;;;4.65;1.60;;;29.40;57.90;;;;;;5066516;28;20035;-75
2023/08/07 08:19:02;;;;;;;5.70;2.15;;;29.40;58.10;;;;;;5063089;28;21432;-74
2023/08/07 08:21:28;;;;;;;5.30;1.88;;;29.20;57.10;;;;;;5065882;28;20494;-71
2023/08/07 08:23:53;;;;;;;1.90;1.70;;;29.20;57.20;;;;;;5069039;28;20032;-73
2023/08/07 08:26:19;;;;;;;2.75;1.70;;;29.00;57.30;;;;;;5066828;28;20511;-75
2023/08/07 08:28:45;;;;;;;2.35;1.50;;;29.10;59.20;;;;;;5063889;28;20033;-73
2023/08/07 08:31:11;;;;;;;4.13;1.88;;;29.10;57.90;;;;;;5065572;28;20039;-73
2023/08/07 08:33:37;;;;;;;4.80;2.00;;;29.10;57.60;;;;;;5066383;28;20404;-75
2023/08/07 08:36:03;;;;;;;5.57;1.80;;;29.10;57.50;;;;;;5064809;28;20033;-73
2023/08/07 08:38:32;;;;;;;2.17;1.60;;;29.10;57.90;;;;;;5065599;28;20033;-72
2023/08/07 08:41:02;;;;;;;2.97;1.60;;;29.10;57.70;;;;;;5066783;28;20085;-73
2023/08/07 08:43:34;;;;;;;5.85;1.95;;;29.10;58.60;;;;;;5065592;28;20046;-75
2023/08/07 08:46:01;;;;;;;2.35;1.67;;;29.20;58.40;;;;;;5064396;28;20036;-72
2023/08/07 08:48:31;;;;;;;4.30;1.50;;;29.20;57.50;;;;;;5065938;28;20039;-71
2023/08/07 08:50:57;;;;;;;1.98;1.65;;;29.20;58.00;;;;;;5063439;28;20503;-75
2023/08/07 08:53:24;;;;;;;3.67;1.73;;;29.20;58.10;;;;;;5064063;28;20040;-75
2023/08/07 08:55:51;;;;;;;3.28;1.80;;;29.20;57.80;;;;;;5065522;28;20068;-73
2023/08/07 08:58:17;;;;;;;3.83;2.08;;;29.20;58.40;;;;;;5070777;28;20273;-73
2023/08/07 09:00:43;;;;;;;4.82;2.00;;;29.10;58.00;;;;;;5063860;28;20454;-72
2023/08/07 09:03:10;;;;;;;3.30;2.00;;;29.20;62.00;;;;;;5047444;28;20025;-73
2023/08/07 09:05:37;;;;;;;1.73;1.60;;;29.10;59.30;;;;;;5062950;28;20415;-75
2023/08/07 09:08:05;;;;;;;3.00;1.45;;;29.10;58.20;;;;;;5064947;28;20032;-72
2023/08/07 09:10:32;;;;;;;2.92;1.40;;;29.00;57.30;;;;;;5060404;28;20379;-75
2023/08/07 09:13:03;;;;;;;2.88;1.70;;;29.00;57.30;;;;;;5063059;28;20033;-74
2023/08/07 09:15:35;;;;;;;3.45;1.52;;;29.10;57.60;;;;;;5080243;28;20037;-73
2023/08/07 09:18:07;;;;;;;5.28;2.05;;;29.10;57.70;;;;;;5065248;28;20807;-72
2023/08/07 09:20:35;;;;;;;2.17;1.60;;;29.00;57.40;;;;;;5065345;28;20036;-73
2023/08/07 09:23:00;;;;;;;2.70;1.70;;;28.90;57.20;;;;;;5065370;28;20029;-71
2023/08/07 09:25:34;;;;;;;3.30;1.40;;;28.90;57.20;;;;;;5050744;28;20032;-71
2023/08/07 09:28:04;;;;;;;1.88;1.45;;;28.90;56.70;;;;;;5064117;28;20257;-72
2023/08/07 09:30:31;;;;;;;2.67;1.77;;;28.90;56.60;;;;;;5060761;28;20043;-74
2023/08/07 09:32:58;;;;;;;4.22;1.58;;;28.90;56.30;;;;;;5064058;28;20016;-73
2023/08/07 09:35:24;;;;;;;3.22;1.58;;;28.90;57.10;;;;;;5065425;28;20120;-73
2023/08/07 09:37:50;;;;;;;2.20;2.00;;;28.90;56.40;;;;;;5061017;28;20144;-73
2023/08/07 09:40:17;;;;;;;3.97;1.80;;;28.90;56.50;;;;;;5060215;28;20033;-74
2023/08/07 09:42:43;;;;;;;2.10;1.73;;;28.80;56.60;;;;;;5063651;28;20061;-73
2023/08/07 09:45:19;;;;;;;5.25;1.70;;;28.90;56.60;;;;;;5063611;28;20064;-73
2023/08/07 09:47:47;;;;;;;1.55;1.45;;;28.90;56.80;;;;;;5062762;28;20044;-73
2023/08/07 09:50:17;;;;;;;1.83;1.55;;;29.00;57.20;;;;;;5063999;28;20033;-74
2023/08/07 09:52:47;;;;;;;2.85;1.55;;;29.00;56.50;;;;;;5063270;28;20106;-73
2023/08/07 09:55:15;;;;;;;4.20;1.90;;;28.90;56.90;;;;;;5061409;28;20044;-73
2023/08/07 09:57:44;;;;;;;2.03;1.83;;;28.90;56.70;;;;;;5066302;28;20086;-71
2023/08/07 10:00:15;;;;;;;2.95;1.70;;;28.90;57.00;;;;;;5062241;28;20538;-73
2023/08/07 10:02:42;;;;;;;2.08;1.67;;;29.00;56.20;;;;;;5061305;28;20063;-71
2023/08/07 10:05:12;;;;;;;2.28;1.60;;;29.00;56.60;;;;;;5068184;28;20115;-73
2023/08/07 10:07:38;;;;;;;1.60;1.50;;;28.90;56.40;;;;;;5064619;28;20078;-72
2023/08/07 10:10:06;;;;;;;1.73;1.60;;;29.00;56.80;;;;;;5060649;28;20048;-73
2023/08/07 10:12:33;;;;;;;2.42;1.70;;;29.00;56.80;;;;;;5060954;28;20029;-73
2023/08/07 10:15:02;;;;;;;2.88;1.60;;;29.00;57.60;;;;;;5067411;28;20028;-73
2023/08/07 10:17:31;;;;;;;3.35;1.88;;;29.00;57.50;;;;;;5064092;28;20123;-73
2023/08/07 10:19:57;;;;;;;1.60;1.45;;;29.00;57.10;;;;;;5061711;28;20040;-72
2023/08/07 10:22:26;;;;;;;3.80;1.60;;;29.10;58.30;;;;;;5063175;28;20112;-71
2023/08/07 10:24:56;;;;;;;5.82;1.90;;;29.00;56.60;;;;;;5062276;28;20506;-72
2023/08/07 10:27:24;;;;;;;1.60;1.50;;;29.00;56.30;;;;;;5062809;28;20029;-73
2023/08/07 10:29:53;;;;;;;2.78;1.75;;;29.00;56.60;;;;;;5065301;28;20055;-70
2023/08/07 10:32:21;;;;;;;2.88;1.73;;;29.00;56.30;;;;;;5061662;28;20036;-70
2023/08/07 10:34:50;;;;;;;1.70;1.55;;;29.00;56.60;;;;;;5064194;28;20122;-70
2023/08/07 10:37:44;;;;;;;1.60;1.50;;;29.00;56.40;;;;;;5063722;28;20177;-69
2023/08/07 10:40:12;;;;;;;3.45;1.50;;;28.90;55.40;;;;;;5061030;28;20032;-71
2023/08/07 10:42:51;;;;;;;4.38;1.70;;;29.00;56.60;;;;;;5062738;28;20024;-72
2023/08/07 10:45:21;;;;;;;5.93;1.65;;;29.00;56.10;;;;;;5061612;28;20032;-72
2023/08/07 10:47:57;;;;;;;2.67;1.70;;;29.10;55.50;;;;;;5065292;28;20037;-73
2023/08/07 10:50:32;;;;;;;2.25;1.77;;;29.10;55.70;;;;;;5062421;28;20040;-72
2023/08/07 10:53:05;;;;;;;3.03;1.70;;;29.00;55.30;;;;;;5064344;28;20040;-71
2023/08/07 10:55:45;;;;;;;3.35;1.42;;;29.00;55.70;;;;;;5063190;28;20055;-73
2023/08/07 10:58:25;;;;;;;2.03;1.83;;;29.10;56.10;;;;;;5065624;28;20037;-70
2023/08/07 11:00:52;;;;;;;3.22;1.65;;;29.10;57.40;;;;;;5064321;28;20041;-72
2023/08/07 11:03:36;;;;;;;2.28;1.75;;;29.10;56.50;;;;;;5066471;28;20028;-72
2023/08/07 11:06:02;;;;;;;3.50;1.50;;;29.10;56.50;;;;;;5064390;28;20068;-70
2023/08/07 11:08:29;;;;;;;4.32;1.60;;;29.10;56.50;;;;;;5064946;28;20127;-71
2023/08/07 11:10:57;;;;;;;1.50;1.40;;;29.10;56.70;;;;;;5069953;28;20510;-72
2023/08/07 11:13:23;;;;;;;1.83;1.67;;;29.10;56.30;;;;;;5067850;28;20411;-71
2023/08/07 11:15:49;;;;;;;2.35;1.50;;;29.00;56.00;;;;;;5066036;28;20041;-71
2023/08/07 11:18:16;;;;;;;2.72;1.50;;;29.10;56.60;;;;;;5066295;28;20024;-71
2023/08/07 11:20:42;;;;;;;3.30;1.63;;;29.10;56.20;;;;;;5067588;28;20036;-71
2023/08/07 11:23:08;;;;;;;2.40;1.75;;;29.10;56.40;;;;;;5064335;28;20036;-73
2023/08/07 11:25:34;;;;;;;2.80;1.88;;;29.10;56.20;;;;;;5066945;28;20047;-72
2023/08/07 11:28:00;;;;;;;3.90;1.80;;;29.10;56.50;;;;;;5067592;28;20532;-72
2023/08/07 11:30:26;;;;;;;2.33;1.52;;;29.20;56.30;;;;;;5065751;28;20063;-71
2023/08/07 11:32:52;;;;;;;5.35;1.58;;;29.20;56.40;;;;;;5067215;28;20118;-71
2023/08/07 11:35:18;;;;;;;2.40;2.15;;;29.20;56.80;;;;;;5066022;28;20123;-71
2023/08/07 11:37:47;;;;;;;4.18;1.90;;;29.20;56.80;;;;;;5067724;28;20038;-71
2023/08/07 11:40:13;;;;;;;2.22;2.00;;;29.20;56.70;;;;;;5066524;28;20032;-71
2023/08/07 11:42:41;;;;;;;2.58;2.00;;;29.20;56.70;;;;;;5065820;28;20029;-73
2023/08/07 11:45:08;;;;;;;3.88;1.70;;;29.20;56.90;;;;;;5069391;28;20201;-71
2023/08/07 11:47:34;;;;;;;2.25;1.90;;;29.20;56.60;;;;;;5063320;28;20067;-73
2023/08/07 11:50:02;;;;;;;2.35;2.05;;;29.20;56.80;;;;;;5065392;28;20101;-71
2023/08/07 11:52:28;;;;;;;2.00;1.88;;;29.20;57.00;;;;;;5063980;28;20044;-71
2023/08/07 11:54:54;;;;;;;2.63;2.00;;;29.10;56.50;;;;;;5064712;28;20079;-73
2023/08/07 11:57:22;;;;;;;2.92;2.05;;;29.20;57.10;;;;;;5066690;28;20130;-73
2023/08/07 11:59:52;;;;;;;2.20;1.90;;;29.20;57.20;;;;;;5065328;28;20039;-72
2023/08/07 12:02:24;;;;;;;2.60;1.88;;;29.20;56.80;;;;;;5068239;28;20098;-72
2023/08/07 12:04:50;;;;;;;2.42;1.90;;;29.20;57.20;;;;;;5068353;28;20037;-71
2023/08/07 12:07:23;;;;;;;1.92;1.77;;;29.30;57.20;;;;;;5066505;28;20080;-73
2023/08/07 12:09:49;;;;;;;3.30;2.05;;;29.30;57.10;;;;;;5067869;28;20038;-72
2023/08/07 12:12:14;;;;;;;3.78;2.38;;;29.30;57.20;;;;;;5065073;28;20028;-72
2023/08/07 12:14:40;;;;;;;3.42;2.25;;;29.30;57.00;;;;;;5063671;28;20135;-72
2023/08/07 12:17:09;;;;;;;6.18;2.28;;;29.30;57.30;;;;;;5069142;28;20035;-72
2023/08/07 12:19:40;;;;;;;2.90;2.08;;;29.30;57.20;;;;;;5064305;28;20493;-71
2023/08/07 12:22:11;;;;;;;3.92;2.08;;;29.30;56.90;;;;;;5067062;28;20041;-72
2023/08/07 12:24:37;;;;;;;2.70;1.80;;;29.30;57.30;;;;;;5066170;28;20038;-72
2023/08/07 12:27:04;;;;;;;6.82;2.80;;;29.30;57.40;;;;;;5066721;28;20508;-71
2023/08/07 12:29:30;;;;;;;3.28;1.98;;;29.30;57.10;;;;;;5065887;28;20040;-72
2023/08/07 12:31:59;;;;;;;3.85;2.22;;;29.30;57.60;;;;;;5063209;28;20124;-72
2023/08/07 12:34:25;;;;;;;4.35;1.90;;;29.30;57.00;;;;;;5069878;28;20038;-72
2023/08/07 12:36:51;;;;;;;2.47;2.08;;;29.40;58.10;;;;;;5065627;28;20044;-72
2023/08/07 12:39:17;;;;;;;5.45;2.25;;;29.40;57.40;;;;;;5063856;28;20028;-72
2023/08/07 12:41:43;;;;;;;3.70;2.08;;;29.40;57.40;;;;;;5062760;28;20056;-72
2023/08/07 12:44:09;;;;;;;2.45;2.00;;;29.40;57.60;;;;;;5065710;28;20040;-72
2023/08/07 12:46:36;;;;;;;2.03;1.85;;;29.40;57.60;;;;;;5063691;28;20134;-71